createdAt,value
2022-07-26T00:02:05.335Z,2.88
2022-07-26T00:04:33.654Z,3.08
2022-07-26T00:07:01.721Z,3.20
2022-07-26T00:09:29.790Z,3.22
2022-07-26T00:11:57.697Z,2.63
2022-07-26T00:14:26.111Z,2.90
2022-07-26T00:16:54.290Z,3.08
2022-07-26T00:19:22.471Z,2.53
2022-07-26T00:22:10.528Z,2.70
2022-07-26T00:24:39.756Z,3.00
2022-07-26T00:27:08.137Z,2.90
2022-07-26T00:29:36.335Z,3.17
2022-07-26T00:32:04.936Z,3.08
2022-07-26T00:34:33.417Z,2.35
2022-07-26T00:37:01.690Z,2.65
2022-07-26T00:39:32.817Z,2.58
2022-07-26T00:42:00.855Z,2.60
2022-07-26T00:44:40.039Z,2.80
2022-07-26T00:47:08.519Z,2.25
2022-07-26T00:49:36.785Z,2.28
2022-07-26T00:52:07.293Z,2.72
2022-07-26T00:54:35.596Z,2.03
2022-07-26T00:57:04.126Z,2.35
2022-07-26T00:59:32.108Z,2.50
2022-07-26T01:02:00.290Z,2.25
2022-07-26T01:04:28.815Z,2.20
2022-07-26T01:06:57.080Z,2.60
2022-07-26T01:09:25.642Z,2.63
2022-07-26T01:11:53.923Z,2.65
2022-07-26T01:14:23.105Z,2.72
2022-07-26T01:16:51.996Z,2.60
2022-07-26T01:19:20.889Z,2.17
2022-07-26T01:21:50.111Z,2.28
2022-07-26T01:24:18.770Z,2.60
2022-07-26T01:26:47.350Z,2.85
2022-07-26T01:29:15.406Z,2.63
2022-07-26T01:31:43.603Z,2.28
2022-07-26T01:34:11.863Z,2.30
2022-07-26T01:36:40.042Z,2.83
2022-07-26T01:39:08.294Z,2.65
2022-07-26T01:41:37.549Z,2.53
2022-07-26T01:44:08.214Z,2.28
2022-07-26T01:46:36.807Z,2.10
2022-07-26T01:49:05.601Z,1.90
2022-07-26T01:51:33.564Z,2.22
2022-07-26T01:54:02.941Z,2.53
2022-07-26T01:56:31.147Z,2.72
2022-07-26T01:58:59.590Z,2.20
2022-07-26T02:01:39.209Z,2.72
2022-07-26T02:04:28.995Z,2.97
2022-07-26T02:06:56.914Z,2.72
2022-07-26T02:09:25.875Z,2.33
2022-07-26T02:11:55.898Z,2.17
2022-07-26T02:14:25.739Z,2.40
2022-07-26T02:17:00.242Z,2.47
2022-07-26T02:19:29.847Z,2.15
2022-07-26T02:21:58.128Z,1.77
2022-07-26T02:24:29.175Z,2.33
2022-07-26T02:26:58.180Z,2.50
2022-07-26T02:29:26.775Z,2.35
2022-07-26T02:31:55.496Z,2.17
2022-07-26T02:34:23.889Z,2.00
2022-07-26T02:36:52.074Z,2.85
2022-07-26T02:39:20.183Z,2.17
2022-07-26T02:41:49.357Z,3.03
2022-07-26T02:44:17.405Z,1.88
2022-07-26T02:46:45.379Z,2.22
2022-07-26T02:49:13.575Z,3.00
2022-07-26T02:51:41.683Z,2.80
2022-07-26T02:54:10.065Z,2.08
2022-07-26T02:56:38.759Z,2.42
2022-07-26T02:59:07.673Z,2.03
2022-07-26T03:01:35.641Z,2.67
2022-07-26T03:04:04.008Z,1.80
2022-07-26T03:06:31.910Z,2.05
2022-07-26T03:09:00.675Z,1.90
2022-07-26T03:11:28.448Z,2.00
2022-07-26T03:13:56.260Z,2.10
2022-07-26T03:16:29.006Z,2.20
2022-07-26T03:18:57.936Z,1.98
2022-07-26T03:21:25.971Z,2.17
2022-07-26T03:23:54.006Z,2.20
2022-07-26T03:26:22.564Z,1.95
2022-07-26T03:28:50.537Z,2.50
2022-07-26T03:31:18.600Z,1.80
2022-07-26T03:33:46.675Z,1.90
2022-07-26T03:36:15.418Z,1.83
2022-07-26T03:38:43.785Z,1.75
2022-07-26T03:41:13.622Z,2.10
2022-07-26T03:43:42.314Z,1.73
2022-07-26T03:46:10.467Z,2.40
2022-07-26T03:48:38.527Z,2.08
2022-07-26T03:51:06.724Z,2.55
2022-07-26T03:53:34.885Z,1.80
2022-07-26T03:56:21.509Z,2.05
2022-07-26T03:58:49.385Z,1.80
2022-07-26T04:01:17.449Z,2.25
2022-07-26T04:03:47.689Z,1.88
2022-07-26T04:06:16.625Z,1.77
2022-07-26T04:08:45.639Z,1.75
2022-07-26T04:11:13.998Z,2.03
2022-07-26T04:13:42.064Z,1.60
2022-07-26T04:16:10.206Z,1.50
2022-07-26T04:18:38.262Z,1.77
2022-07-26T04:21:06.443Z,1.80
2022-07-26T04:23:34.411Z,1.85
2022-07-26T04:26:02.397Z,1.58
2022-07-26T04:28:30.436Z,1.90
2022-07-26T04:30:59.038Z,1.70
2022-07-26T04:33:27.401Z,1.33
2022-07-26T04:35:55.534Z,1.40
2022-07-26T04:38:23.846Z,1.20
2022-07-26T04:40:52.604Z,1.17
2022-07-26T04:43:20.760Z,1.30
2022-07-26T04:45:49.208Z,1.58
2022-07-26T04:48:17.772Z,1.00
2022-07-26T04:50:45.771Z,1.60
2022-07-26T04:53:13.814Z,1.67
2022-07-26T04:55:42.335Z,1.40
2022-07-26T04:58:10.787Z,1.25
2022-07-26T05:01:02.870Z,1.30
2022-07-26T05:03:26.706Z,1.42
2022-07-26T05:05:54.570Z,1.60
2022-07-26T05:08:22.624Z,1.25
2022-07-26T05:10:55.164Z,1.73
2022-07-26T05:13:29.769Z,1.30
2022-07-26T05:15:59.916Z,1.70
2022-07-26T05:18:31.493Z,1.30
2022-07-26T05:20:59.980Z,2.15
2022-07-26T05:23:28.249Z,1.77
2022-07-26T05:25:56.603Z,1.70
2022-07-26T05:28:24.761Z,1.60
2022-07-26T05:30:52.867Z,1.30
2022-07-26T05:33:20.966Z,1.30
2022-07-26T05:35:48.992Z,1.85
2022-07-26T05:38:16.961Z,1.85
2022-07-26T05:40:48.663Z,1.40
2022-07-26T05:43:19.069Z,1.67
2022-07-26T05:45:47.084Z,1.80
2022-07-26T05:48:15.057Z,1.70
2022-07-26T05:50:42.979Z,1.88
2022-07-26T05:53:11.011Z,1.67
2022-07-26T05:55:38.995Z,1.33
2022-07-26T05:58:07.057Z,2.03
2022-07-26T06:00:35.375Z,1.63
2022-07-26T06:03:26.154Z,1.50
2022-07-26T06:05:56.983Z,1.85
2022-07-26T06:08:26.502Z,1.98
2022-07-26T06:10:55.134Z,2.00
2022-07-26T06:13:23.412Z,2.28
2022-07-26T06:15:51.710Z,1.75
2022-07-26T06:18:19.684Z,2.05
2022-07-26T06:20:48.599Z,1.88
2022-07-26T06:23:16.779Z,2.55
2022-07-26T06:25:44.864Z,2.50
2022-07-26T06:28:12.952Z,2.42
2022-07-26T06:30:41.411Z,2.28
2022-07-26T06:33:09.825Z,2.33
2022-07-26T06:35:39.351Z,2.40
2022-07-26T06:38:08.221Z,1.98
2022-07-26T06:40:36.829Z,2.30
2022-07-26T06:43:05.004Z,2.22
2022-07-26T06:45:34.287Z,2.38
2022-07-26T06:48:02.507Z,2.83
2022-07-26T06:50:30.505Z,2.70
2022-07-26T06:52:58.383Z,3.10
2022-07-26T06:55:26.316Z,2.40
2022-07-26T06:57:54.157Z,2.42
2022-07-26T07:00:22.156Z,2.40
2022-07-26T07:02:50.206Z,3.35
2022-07-26T07:05:18.137Z,2.95
2022-07-26T07:07:46.424Z,2.72
2022-07-26T07:10:14.363Z,2.45
2022-07-26T07:12:44.990Z,2.15
2022-07-26T07:15:13.607Z,2.70
2022-07-26T07:17:41.535Z,2.65
2022-07-26T07:20:10.076Z,2.22
2022-07-26T07:22:37.927Z,2.75
2022-07-26T07:25:06.347Z,3.20
2022-07-26T07:27:34.594Z,2.42
2022-07-26T07:30:02.721Z,3.08
2022-07-26T07:32:32.299Z,2.67
2022-07-26T07:35:00.444Z,3.10
2022-07-26T07:37:28.709Z,2.70
2022-07-26T07:40:16.649Z,3.45
2022-07-26T07:42:45.701Z,3.00
2022-07-26T07:45:13.779Z,2.63
2022-07-26T07:47:41.876Z,2.88
2022-07-26T07:50:10.055Z,3.25
2022-07-26T07:52:39.186Z,2.80
2022-07-26T07:55:40.206Z,2.90
2022-07-26T07:57:57.071Z,3.58
2022-07-26T08:00:27.099Z,3.38
2022-07-26T08:02:55.838Z,3.38
2022-07-26T08:05:23.744Z,3.00
2022-07-26T08:07:52.972Z,3.05
2022-07-26T08:10:21.205Z,3.33
2022-07-26T08:12:51.351Z,3.25
2022-07-26T08:15:21.224Z,3.13
2022-07-26T08:17:54.812Z,3.80
2022-07-26T08:20:23.785Z,3.40
2022-07-26T08:22:53.398Z,3.65
2022-07-26T08:25:21.541Z,3.33
2022-07-26T08:28:03.262Z,3.03
2022-07-26T08:30:32.873Z,3.53
2022-07-26T08:33:01.209Z,4.15
2022-07-26T08:35:32.233Z,3.42
2022-07-26T08:38:00.652Z,2.72
2022-07-26T08:40:29.557Z,3.70
2022-07-26T08:42:58.183Z,2.90
2022-07-26T08:45:27.841Z,2.90
2022-07-26T08:48:16.860Z,2.90
2022-07-26T08:50:44.404Z,2.80
2022-07-26T08:53:13.368Z,3.13
2022-07-26T08:58:29.825Z,3.15
2022-07-26T09:01:06.779Z,2.90
2022-07-26T09:03:38.206Z,2.85
2022-07-26T09:06:20.815Z,2.60
2022-07-26T09:08:51.350Z,2.38
2022-07-26T09:11:25.561Z,2.47
2022-07-26T09:14:00.946Z,2.80
2022-07-26T09:16:29.599Z,2.92
2022-07-26T09:19:19.475Z,3.47
2022-07-26T09:21:47.542Z,2.70
2022-07-26T09:24:31.611Z,2.50
2022-07-26T09:27:01.200Z,2.22
2022-07-26T09:29:30.199Z,2.75
2022-07-26T09:32:24.653Z,2.38
2022-07-26T09:34:58.814Z,2.42
2022-07-26T09:37:41.326Z,3.00
2022-07-26T09:40:11.691Z,2.70
2022-07-26T09:42:59.169Z,2.63
2022-07-26T09:45:28.920Z,2.50
2022-07-26T09:47:56.879Z,2.33
2022-07-26T09:50:28.305Z,2.67
2022-07-26T09:53:10.747Z,2.63
2022-07-26T09:55:56.825Z,2.65
2022-07-26T09:58:25.340Z,2.67
2022-07-26T10:00:53.479Z,2.40
2022-07-26T10:03:25.640Z,3.15
2022-07-26T10:05:54.173Z,2.08
2022-07-26T10:08:22.293Z,1.42
2022-07-26T10:11:05.996Z,1.38
2022-07-26T10:13:34.340Z,1.15
2022-07-26T10:16:03.155Z,1.02
2022-07-26T10:18:40.704Z,0.90
2022-07-26T10:21:18.978Z,1.55
2022-07-26T10:23:48.794Z,1.05
2022-07-26T10:26:36.632Z,0.90
2022-07-26T10:29:21.913Z,0.90
2022-07-26T10:31:56.660Z,0.90
2022-07-26T10:37:02.724Z,0.88
2022-07-26T10:39:30.809Z,0.70
2022-07-26T10:42:01.187Z,0.68
2022-07-26T10:44:42.699Z,0.60
2022-07-26T10:47:11.559Z,0.65
2022-07-26T10:49:45.765Z,0.73
2022-07-26T10:52:19.607Z,0.65
2022-07-26T10:55:08.175Z,0.90
2022-07-26T10:57:41.672Z,0.73
2022-07-26T11:00:13.196Z,0.70
2022-07-26T11:02:43.962Z,1.00
2022-07-26T11:05:14.867Z,0.70
2022-07-26T11:10:17.494Z,0.98
2022-07-26T11:12:45.612Z,0.88
2022-07-26T11:15:20.330Z,0.77
2022-07-26T11:17:48.343Z,0.88
2022-07-26T11:20:29.652Z,0.75
2022-07-26T11:22:58.002Z,0.90
2022-07-26T11:25:26.087Z,0.82
2022-07-26T11:28:07.347Z,1.08
2022-07-26T11:30:36.214Z,0.90
2022-07-26T11:33:05.698Z,1.08
2022-07-26T11:35:33.711Z,0.90
2022-07-26T11:38:11.833Z,1.33
2022-07-26T11:40:44.571Z,1.10
2022-07-26T11:43:12.746Z,1.45
2022-07-26T11:45:40.715Z,1.58
2022-07-26T11:48:08.928Z,1.70
2022-07-26T11:50:36.975Z,1.30
2022-07-26T11:53:22.392Z,1.30
2022-07-26T11:55:50.350Z,1.45
2022-07-26T11:58:18.169Z,1.40
2022-07-26T12:00:46.153Z,1.20
2022-07-26T12:03:14.511Z,1.20
2022-07-26T12:05:42.518Z,1.50
2022-07-26T12:08:11.223Z,1.90
2022-07-26T12:10:39.178Z,1.40
2022-07-26T12:13:15.237Z,1.35
2022-07-26T12:15:51.163Z,1.17
2022-07-26T12:18:32.994Z,1.70
2022-07-26T12:21:09.570Z,1.13
2022-07-26T12:23:55.963Z,1.17
2022-07-26T12:26:25.871Z,1.17
2022-07-26T12:28:55.058Z,1.40
2022-07-26T12:31:34.445Z,1.00
2022-07-26T12:34:02.760Z,1.30
2022-07-26T12:36:35.357Z,1.08
2022-07-26T12:39:03.674Z,1.10
2022-07-26T12:41:38.894Z,1.10
2022-07-26T12:44:08.992Z,1.20
2022-07-26T12:46:37.461Z,1.25
2022-07-26T12:49:05.898Z,0.90
2022-07-26T12:51:33.996Z,1.20
2022-07-26T12:54:02.264Z,1.13
2022-07-26T12:56:30.272Z,1.02
2022-07-26T12:59:03.980Z,0.90
2022-07-26T13:01:33.015Z,1.13
2022-07-26T13:04:01.147Z,1.00
2022-07-26T13:06:33.122Z,1.10
2022-07-26T13:09:01.334Z,1.30
2022-07-26T13:11:29.305Z,1.23
2022-07-26T13:13:57.738Z,1.70
2022-07-26T13:16:25.799Z,1.40
2022-07-26T13:18:53.727Z,1.17
2022-07-26T13:21:21.943Z,1.10
2022-07-26T13:23:49.957Z,0.90
2022-07-26T13:26:18.170Z,1.05
2022-07-26T13:28:49.581Z,1.00
2022-07-26T13:31:18.470Z,0.90
2022-07-26T13:33:46.594Z,1.10
2022-07-26T13:36:14.596Z,0.80
2022-07-26T13:38:43.212Z,1.20
2022-07-26T13:41:11.229Z,0.98
2022-07-26T13:43:39.395Z,0.90
2022-07-26T13:46:07.693Z,1.15
2022-07-26T13:48:35.952Z,1.40
2022-07-26T13:51:03.894Z,1.00
2022-07-26T13:53:31.855Z,1.10
2022-07-26T13:55:59.804Z,1.13
2022-07-26T13:58:27.710Z,1.15
2022-07-26T14:00:55.766Z,1.20
2022-07-26T14:03:24.040Z,0.95
2022-07-26T14:05:52.178Z,1.27
2022-07-26T14:08:20.173Z,1.10
2022-07-26T14:10:48.193Z,0.90
2022-07-26T14:13:16.255Z,0.82
2022-07-26T14:15:44.263Z,1.00
2022-07-26T14:18:14.492Z,1.15
2022-07-26T14:20:43.320Z,1.10
2022-07-26T14:23:11.459Z,1.20
2022-07-26T14:25:39.397Z,1.10
2022-07-26T14:28:07.285Z,0.90
2022-07-26T14:30:35.855Z,0.80
2022-07-26T14:33:05.213Z,0.95
2022-07-26T14:35:33.169Z,0.77
2022-07-26T14:38:01.145Z,0.90
2022-07-26T14:40:29.155Z,1.13
2022-07-26T14:42:57.148Z,0.77
2022-07-26T14:45:25.222Z,0.68
2022-07-26T14:47:53.112Z,0.85
2022-07-26T14:50:23.579Z,0.60
2022-07-26T14:52:51.502Z,0.80
2022-07-26T14:55:25.065Z,1.40
2022-07-26T14:57:53.638Z,0.93
2022-07-26T15:00:21.815Z,0.50
2022-07-26T15:02:50.407Z,0.80
2022-07-26T15:05:19.589Z,0.75
2022-07-26T15:07:48.183Z,0.50
2022-07-26T15:10:16.863Z,0.50
2022-07-26T15:12:45.037Z,0.90
2022-07-26T15:15:12.986Z,0.93
2022-07-26T15:17:40.904Z,0.93
2022-07-26T15:20:09.300Z,0.80
2022-07-26T15:22:37.133Z,0.90
2022-07-26T15:25:05.443Z,1.40
2022-07-26T15:27:33.791Z,1.00
2022-07-26T15:30:07.992Z,0.93
2022-07-26T15:32:43.428Z,0.98
2022-07-26T15:35:14.038Z,1.00
2022-07-26T15:37:48.726Z,1.00
2022-07-26T15:40:16.869Z,1.10
2022-07-26T15:42:47.593Z,0.88
2022-07-26T15:45:17.144Z,1.00
2022-07-26T15:47:56.251Z,0.90
2022-07-26T15:50:27.517Z,0.93
2022-07-26T15:52:55.686Z,1.20
2022-07-26T15:55:23.959Z,1.10
2022-07-26T15:57:52.057Z,0.95
2022-07-26T16:00:20.097Z,1.20
2022-07-26T16:02:48.297Z,1.27
2022-07-26T16:05:16.370Z,0.70
2022-07-26T16:07:45.275Z,0.88
2022-07-26T16:10:14.337Z,0.95
2022-07-26T16:12:43.247Z,0.70
2022-07-26T16:15:11.895Z,0.80
2022-07-26T16:17:40.074Z,0.47
2022-07-26T16:20:08.862Z,0.60
2022-07-26T16:22:41.258Z,0.60
2022-07-26T16:25:12.829Z,0.65
2022-07-26T16:27:44.737Z,0.70
2022-07-26T16:30:14.107Z,0.73
2022-07-26T16:32:42.758Z,0.43
2022-07-26T16:35:12.202Z,0.40
2022-07-26T16:37:41.655Z,0.63
2022-07-26T16:40:10.249Z,0.80
2022-07-26T16:42:38.450Z,0.68
2022-07-26T16:45:09.483Z,1.15
2022-07-26T16:50:06.213Z,1.00
2022-07-26T16:52:34.305Z,0.70
2022-07-26T16:55:04.225Z,0.63
2022-07-26T16:57:31.998Z,0.50
2022-07-26T17:00:00.151Z,0.70
2022-07-26T17:02:28.727Z,0.63
2022-07-26T17:04:58.713Z,0.70
2022-07-26T17:07:26.823Z,0.93
2022-07-26T17:09:55.953Z,0.60
2022-07-26T17:12:24.655Z,0.98
2022-07-26T17:14:54.845Z,0.70
2022-07-26T17:17:22.833Z,0.97
2022-07-26T17:19:50.962Z,1.23
2022-07-26T17:22:19.543Z,0.65
2022-07-26T17:24:48.392Z,0.70
2022-07-26T17:27:19.628Z,0.73
2022-07-26T17:29:47.783Z,1.40
2022-07-26T17:32:15.987Z,1.45
2022-07-26T17:34:43.974Z,0.80
2022-07-26T17:37:12.504Z,0.80
2022-07-26T17:39:52.460Z,1.00
2022-07-26T17:42:21.605Z,1.20
2022-07-26T17:44:50.427Z,0.80
2022-07-26T17:47:29.418Z,0.63
2022-07-26T17:50:34.109Z,0.70
2022-07-26T17:52:54.438Z,0.65
2022-07-26T17:55:22.708Z,0.70
2022-07-26T17:57:51.062Z,0.93
2022-07-26T18:00:21.114Z,0.90
2022-07-26T18:02:49.560Z,0.60
2022-07-26T18:05:19.361Z,1.10
2022-07-26T18:07:47.435Z,0.80
2022-07-26T18:10:15.476Z,1.00
2022-07-26T18:12:44.620Z,0.80
2022-07-26T18:15:12.852Z,0.90
2022-07-26T18:17:40.909Z,0.88
2022-07-26T18:20:09.384Z,0.85
2022-07-26T18:22:37.267Z,0.90
2022-07-26T18:25:06.156Z,0.90
2022-07-26T18:27:34.378Z,1.17
2022-07-26T18:30:02.366Z,1.33
2022-07-26T18:32:30.705Z,1.50
2022-07-26T18:34:58.895Z,0.90
2022-07-26T18:37:27.295Z,0.93
2022-07-26T18:39:57.763Z,0.80
2022-07-26T18:42:26.545Z,1.13
2022-07-26T18:44:54.806Z,1.15
2022-07-26T18:47:23.019Z,0.68
2022-07-26T18:50:46.782Z,1.10
2022-07-26T18:53:14.746Z,0.82
2022-07-26T18:55:42.742Z,0.80
2022-07-26T18:58:10.721Z,0.90
2022-07-26T19:00:38.924Z,1.10
2022-07-26T19:03:07.139Z,0.90
2022-07-26T19:05:35.822Z,0.90
2022-07-26T19:08:04.917Z,0.80
2022-07-26T19:10:33.000Z,0.85
2022-07-26T19:13:01.145Z,1.20
2022-07-26T19:15:29.995Z,0.98
2022-07-26T19:17:58.468Z,0.70
2022-07-26T19:20:26.819Z,1.38
2022-07-26T19:22:54.697Z,0.90
2022-07-26T19:25:22.594Z,1.13
2022-07-26T19:27:50.438Z,1.58
2022-07-26T19:30:18.426Z,1.02
2022-07-26T19:32:46.376Z,1.10
2022-07-26T19:35:17.550Z,1.30
2022-07-26T19:37:46.132Z,0.70
2022-07-26T19:40:14.302Z,0.80
2022-07-26T19:42:43.735Z,0.82
2022-07-26T19:45:12.479Z,0.63
2022-07-26T19:47:40.826Z,0.90
2022-07-26T19:50:10.188Z,0.85
2022-07-26T19:52:38.116Z,1.17
2022-07-26T19:55:06.714Z,1.00
2022-07-26T19:57:34.785Z,0.88
2022-07-26T20:00:04.635Z,1.42
2022-07-26T20:02:41.280Z,0.93
2022-07-26T20:05:11.617Z,0.95
2022-07-26T20:07:39.643Z,0.85
2022-07-26T20:10:08.271Z,1.10
2022-07-26T20:12:37.986Z,1.20
2022-07-26T20:15:07.527Z,0.82
2022-07-26T20:17:35.924Z,1.20
2022-07-26T20:20:04.469Z,1.05
2022-07-26T20:22:32.315Z,1.00
2022-07-26T20:25:00.272Z,0.80
2022-07-26T20:27:28.296Z,1.38
2022-07-26T20:30:00.725Z,1.08
2022-07-26T20:32:29.280Z,1.45
2022-07-26T20:34:59.088Z,1.13
2022-07-26T20:37:26.960Z,1.20
2022-07-26T20:39:55.559Z,0.70
2022-07-26T20:42:25.575Z,1.00
2022-07-26T20:44:53.687Z,0.93
2022-07-26T20:47:22.526Z,0.68
2022-07-26T20:49:50.455Z,1.02
2022-07-26T20:52:18.805Z,0.90
2022-07-26T20:54:46.860Z,0.90
2022-07-26T20:57:14.955Z,0.90
2022-07-26T20:59:45.895Z,1.10
2022-07-26T21:02:13.873Z,0.93
2022-07-26T21:04:41.928Z,0.80
2022-07-26T21:07:10.128Z,0.90
2022-07-26T21:09:38.120Z,0.75
2022-07-26T21:12:06.441Z,0.93
2022-07-26T21:14:34.486Z,1.13
2022-07-26T21:17:10.930Z,1.00
2022-07-26T21:19:40.200Z,0.80
2022-07-26T21:22:08.494Z,1.00
2022-07-26T21:24:36.949Z,0.68
2022-07-26T21:27:05.836Z,0.80
2022-07-26T21:29:38.113Z,0.82
2022-07-26T21:32:07.645Z,1.00
2022-07-26T21:34:35.569Z,1.20
2022-07-26T21:37:04.762Z,1.27
2022-07-26T21:39:33.586Z,0.80
2022-07-26T21:42:01.550Z,0.80
2022-07-26T21:44:29.439Z,0.70
2022-07-26T21:46:57.384Z,0.90
2022-07-26T21:49:25.491Z,1.55
2022-07-26T21:51:53.550Z,1.10
2022-07-26T21:54:21.370Z,0.60
2022-07-26T21:56:49.416Z,0.55
2022-07-26T21:59:17.638Z,0.90
2022-07-26T22:01:45.593Z,0.93
2022-07-26T22:04:13.880Z,0.75
2022-07-26T22:06:42.087Z,0.90
2022-07-26T22:09:10.490Z,0.75
2022-07-26T22:11:38.608Z,0.68
2022-07-26T22:14:08.586Z,0.90
2022-07-26T22:16:38.025Z,1.08
2022-07-26T22:19:06.961Z,0.90
2022-07-26T22:21:35.164Z,0.60
2022-07-26T22:24:03.311Z,1.00
2022-07-26T22:26:31.371Z,0.65
2022-07-26T22:28:59.788Z,0.60
2022-07-26T22:31:27.868Z,0.60
2022-07-26T22:33:55.905Z,1.05
2022-07-26T22:36:23.913Z,0.80
2022-07-26T22:38:51.787Z,0.65
2022-07-26T22:41:20.282Z,0.70
2022-07-26T22:43:48.153Z,0.88
2022-07-26T22:46:19.106Z,0.63
2022-07-26T22:48:56.086Z,0.70
2022-07-26T22:51:24.152Z,1.42
2022-07-26T22:53:52.047Z,0.80
2022-07-26T22:56:20.159Z,1.15
2022-07-26T22:58:48.088Z,0.68
2022-07-26T23:01:16.944Z,0.77
2022-07-26T23:03:44.992Z,0.70
2022-07-26T23:06:31.371Z,0.60
2022-07-26T23:09:00.304Z,0.80
2022-07-26T23:11:28.468Z,0.63
2022-07-26T23:14:00.464Z,0.60
2022-07-26T23:16:28.493Z,0.55
2022-07-26T23:18:56.941Z,0.68
2022-07-26T23:21:24.846Z,0.63
2022-07-26T23:23:52.960Z,0.60
2022-07-26T23:26:21.004Z,0.60
2022-07-26T23:28:48.982Z,0.98
2022-07-26T23:31:17.165Z,0.80
2022-07-26T23:33:51.541Z,0.75
2022-07-26T23:36:26.821Z,0.70
2022-07-26T23:38:57.437Z,0.60
2022-07-26T23:41:29.166Z,0.65
2022-07-26T23:43:57.299Z,0.88
2022-07-26T23:46:26.001Z,0.70
2022-07-26T23:48:54.539Z,0.57
2022-07-26T23:51:25.658Z,0.60
2022-07-26T23:53:53.481Z,0.65
2022-07-26T23:56:21.219Z,0.75
2022-07-26T23:58:49.664Z,0.63
